sensor_id;sensor_type;location;lat;lon;timestamp;P1;durP1;ratioP1;P2;durP2;ratioP2
14191;SDS011;7177;48.572;7.838;2023-06-14T00:00:17;5.73;;;5.00;;
14191;SDS011;7177;48.572;7.838;2023-06-14T00:02:42;5.90;;;4.80;;
14191;SDS011;7177;48.572;7.838;2023-06-14T00:05:08;5.53;;;4.60;;
14191;SDS011;7177;48.572;7.838;2023-06-14T00:07:34;8.07;;;4.80;;
14191;SDS011;7177;48.572;7.838;2023-06-14T00:10:02;5.87;;;4.50;;
14191;SDS011;7177;48.572;7.838;2023-06-14T00:12:29;5.43;;;4.60;;
14191;SDS011;7177;48.572;7.838;2023-06-14T00:14:54;4.87;;;4.37;;
14191;SDS011;7177;48.572;7.838;2023-06-14T00:17:20;5.37;;;4.63;;
14191;SDS011;7177;48.572;7.838;2023-06-14T00:19:46;6.60;;;4.70;;
14191;SDS011;7177;48.572;7.838;2023-06-14T00:22:12;5.77;;;5.13;;
14191;SDS011;7177;48.572;7.838;2023-06-14T00:24:37;6.50;;;5.03;;
14191;SDS011;7177;48.572;7.838;2023-06-14T00:27:03;5.67;;;4.63;;
14191;SDS011;7177;48.572;7.838;2023-06-14T00:29:29;5.40;;;4.90;;
14191;SDS011;7177;48.572;7.838;2023-06-14T00:31:54;6.27;;;4.27;;
14191;SDS011;7177;48.572;7.838;2023-06-14T00:34:20;6.23;;;4.83;;
14191;SDS011;7177;48.572;7.838;2023-06-14T00:36:45;6.80;;;4.70;;
14191;SDS011;7177;48.572;7.838;2023-06-14T00:39:11;7.90;;;4.70;;
14191;SDS011;7177;48.572;7.838;2023-06-14T00:41:36;5.20;;;4.27;;
14191;SDS011;7177;48.572;7.838;2023-06-14T00:44:02;12.53;;;4.73;;
14191;SDS011;7177;48.572;7.838;2023-06-14T00:46:28;6.03;;;4.70;;
14191;SDS011;7177;48.572;7.838;2023-06-14T00:48:54;6.53;;;4.70;;
14191;SDS011;7177;48.572;7.838;2023-06-14T00:51:21;6.50;;;4.80;;
14191;SDS011;7177;48.572;7.838;2023-06-14T00:53:46;7.27;;;5.03;;
14191;SDS011;7177;48.572;7.838;2023-06-14T00:56:13;8.10;;;4.87;;
14191;SDS011;7177;48.572;7.838;2023-06-14T00:58:39;8.33;;;5.17;;
14191;SDS011;7177;48.572;7.838;2023-06-14T01:01:05;9.17;;;5.27;;
14191;SDS011;7177;48.572;7.838;2023-06-14T01:03:31;6.60;;;4.80;;
14191;SDS011;7177;48.572;7.838;2023-06-14T01:06:32;10.20;;;5.67;;
14191;SDS011;7177;48.572;7.838;2023-06-14T01:11:37;7.97;;;5.43;;
14191;SDS011;7177;48.572;7.838;2023-06-14T01:14:10;6.77;;;5.70;;
14191;SDS011;7177;48.572;7.838;2023-06-14T01:16:38;5.30;;;4.77;;
14191;SDS011;7177;48.572;7.838;2023-06-14T01:19:05;6.53;;;5.40;;
14191;SDS011;7177;48.572;7.838;2023-06-14T01:21:38;6.97;;;5.37;;
14191;SDS011;7177;48.572;7.838;2023-06-14T01:24:06;7.17;;;5.33;;
14191;SDS011;7177;48.572;7.838;2023-06-14T01:26:33;7.97;;;5.33;;
14191;SDS011;7177;48.572;7.838;2023-06-14T01:29:00;8.30;;;5.40;;
14191;SDS011;7177;48.572;7.838;2023-06-14T01:31:26;9.60;;;5.70;;
14191;SDS011;7177;48.572;7.838;2023-06-14T01:33:52;5.07;;;4.50;;
14191;SDS011;7177;48.572;7.838;2023-06-14T01:36:21;7.97;;;5.57;;
14191;SDS011;7177;48.572;7.838;2023-06-14T01:38:49;14.47;;;5.90;;
14191;SDS011;7177;48.572;7.838;2023-06-14T01:41:17;7.07;;;5.83;;
14191;SDS011;7177;48.572;7.838;2023-06-14T01:43:45;7.03;;;5.40;;
14191;SDS011;7177;48.572;7.838;2023-06-14T01:46:13;8.23;;;5.07;;
14191;SDS011;7177;48.572;7.838;2023-06-14T01:48:40;5.87;;;5.13;;
14191;SDS011;7177;48.572;7.838;2023-06-14T01:51:05;10.03;;;5.27;;
14191;SDS011;7177;48.572;7.838;2023-06-14T01:53:31;10.30;;;5.93;;
14191;SDS011;7177;48.572;7.838;2023-06-14T01:55:56;6.57;;;5.23;;
14191;SDS011;7177;48.572;7.838;2023-06-14T01:58:22;6.77;;;5.00;;
14191;SDS011;7177;48.572;7.838;2023-06-14T02:00:48;8.03;;;5.27;;
14191;SDS011;7177;48.572;7.838;2023-06-14T02:03:14;6.83;;;5.80;;
14191;SDS011;7177;48.572;7.838;2023-06-14T02:05:40;7.83;;;5.70;;
14191;SDS011;7177;48.572;7.838;2023-06-14T02:08:06;7.87;;;5.63;;
14191;SDS011;7177;48.572;7.838;2023-06-14T02:10:32;7.83;;;5.90;;
14191;SDS011;7177;48.572;7.838;2023-06-14T02:12:57;6.83;;;5.43;;
14191;SDS011;7177;48.572;7.838;2023-06-14T02:15:23;7.33;;;6.00;;
14191;SDS011;7177;48.572;7.838;2023-06-14T02:17:48;7.40;;;5.93;;
14191;SDS011;7177;48.572;7.838;2023-06-14T02:20:14;8.37;;;5.63;;
14191;SDS011;7177;48.572;7.838;2023-06-14T02:22:40;6.33;;;5.17;;
14191;SDS011;7177;48.572;7.838;2023-06-14T02:25:06;7.13;;;5.57;;
14191;SDS011;7177;48.572;7.838;2023-06-14T02:27:32;6.53;;;5.83;;
14191;SDS011;7177;48.572;7.838;2023-06-14T02:29:58;12.67;;;6.37;;
14191;SDS011;7177;48.572;7.838;2023-06-14T02:32:24;7.63;;;6.10;;
14191;SDS011;7177;48.572;7.838;2023-06-14T02:34:52;6.33;;;5.63;;
14191;SDS011;7177;48.572;7.838;2023-06-14T02:37:18;10.37;;;6.00;;
14191;SDS011;7177;48.572;7.838;2023-06-14T02:39:44;6.90;;;5.50;;
14191;SDS011;7177;48.572;7.838;2023-06-14T02:42:10;6.90;;;5.43;;
14191;SDS011;7177;48.572;7.838;2023-06-14T02:44:36;8.80;;;6.20;;
14191;SDS011;7177;48.572;7.838;2023-06-14T02:47:01;8.13;;;5.43;;
14191;SDS011;7177;48.572;7.838;2023-06-14T02:49:27;8.77;;;6.70;;
14191;SDS011;7177;48.572;7.838;2023-06-14T02:51:54;8.60;;;6.00;;
14191;SDS011;7177;48.572;7.838;2023-06-14T02:54:20;8.30;;;6.80;;
14191;SDS011;7177;48.572;7.838;2023-06-14T02:56:45;6.57;;;5.90;;
14191;SDS011;7177;48.572;7.838;2023-06-14T02:59:11;6.67;;;5.97;;
14191;SDS011;7177;48.572;7.838;2023-06-14T03:01:38;6.50;;;5.77;;
14191;SDS011;7177;48.572;7.838;2023-06-14T03:04:06;7.57;;;5.50;;
14191;SDS011;7177;48.572;7.838;2023-06-14T03:06:32;6.60;;;5.50;;
14191;SDS011;7177;48.572;7.838;2023-06-14T03:08:58;9.43;;;5.97;;
14191;SDS011;7177;48.572;7.838;2023-06-14T03:11:26;6.80;;;5.83;;
14191;SDS011;7177;48.572;7.838;2023-06-14T03:13:52;7.30;;;5.60;;
14191;SDS011;7177;48.572;7.838;2023-06-14T03:16:18;6.50;;;5.77;;
14191;SDS011;7177;48.572;7.838;2023-06-14T03:18:47;12.13;;;6.53;;
14191;SDS011;7177;48.572;7.838;2023-06-14T03:21:13;8.87;;;6.60;;
14191;SDS011;7177;48.572;7.838;2023-06-14T03:23:40;7.40;;;6.10;;
14191;SDS011;7177;48.572;7.838;2023-06-14T03:26:06;7.83;;;6.73;;
14191;SDS011;7177;48.572;7.838;2023-06-14T03:28:33;11.17;;;6.83;;
14191;SDS011;7177;48.572;7.838;2023-06-14T03:30:58;8.93;;;6.50;;
14191;SDS011;7177;48.572;7.838;2023-06-14T03:33:24;12.47;;;6.67;;
14191;SDS011;7177;48.572;7.838;2023-06-14T03:35:50;8.13;;;6.53;;
14191;SDS011;7177;48.572;7.838;2023-06-14T03:38:16;8.73;;;6.30;;
14191;SDS011;7177;48.572;7.838;2023-06-14T03:40:42;10.20;;;6.43;;
14191;SDS011;7177;48.572;7.838;2023-06-14T03:43:08;8.07;;;5.70;;
14191;SDS011;7177;48.572;7.838;2023-06-14T03:45:33;10.23;;;6.20;;
14191;SDS011;7177;48.572;7.838;2023-06-14T03:47:59;5.80;;;5.20;;
14191;SDS011;7177;48.572;7.838;2023-06-14T03:50:25;6.23;;;5.63;;
14191;SDS011;7177;48.572;7.838;2023-06-14T03:52:52;6.23;;;5.37;;
14191;SDS011;7177;48.572;7.838;2023-06-14T03:55:17;8.47;;;5.73;;
14191;SDS011;7177;48.572;7.838;2023-06-14T03:57:43;5.80;;;5.00;;
14191;SDS011;7177;48.572;7.838;2023-06-14T04:00:09;7.70;;;6.17;;
14191;SDS011;7177;48.572;7.838;2023-06-14T04:02:35;7.83;;;5.50;;
14191;SDS011;7177;48.572;7.838;2023-06-14T04:05:01;8.23;;;5.80;;
14191;SDS011;7177;48.572;7.838;2023-06-14T04:07:27;7.90;;;6.30;;
14191;SDS011;7177;48.572;7.838;2023-06-14T04:09:53;9.30;;;5.57;;
14191;SDS011;7177;48.572;7.838;2023-06-14T04:12:19;8.17;;;5.60;;
14191;SDS011;7177;48.572;7.838;2023-06-14T04:14:45;8.67;;;5.80;;
14191;SDS011;7177;48.572;7.838;2023-06-14T04:17:11;6.27;;;5.47;;
14191;SDS011;7177;48.572;7.838;2023-06-14T04:19:36;7.77;;;6.07;;
14191;SDS011;7177;48.572;7.838;2023-06-14T04:22:02;7.77;;;5.80;;
14191;SDS011;7177;48.572;7.838;2023-06-14T04:24:28;6.63;;;5.93;;
14191;SDS011;7177;48.572;7.838;2023-06-14T04:26:57;9.30;;;6.20;;
14191;SDS011;7177;48.572;7.838;2023-06-14T04:29:24;10.50;;;5.70;;
14191;SDS011;7177;48.572;7.838;2023-06-14T04:31:51;8.77;;;5.90;;
14191;SDS011;7177;48.572;7.838;2023-06-14T04:34:19;6.53;;;5.60;;
14191;SDS011;7177;48.572;7.838;2023-06-14T04:36:46;8.80;;;5.47;;
14191;SDS011;7177;48.572;7.838;2023-06-14T04:39:18;18.93;;;7.20;;
14191;SDS011;7177;48.572;7.838;2023-06-14T04:41:44;12.87;;;6.50;;
14191;SDS011;7177;48.572;7.838;2023-06-14T04:44:10;13.77;;;6.63;;
14191;SDS011;7177;48.572;7.838;2023-06-14T04:46:37;7.73;;;5.93;;
14191;SDS011;7177;48.572;7.838;2023-06-14T04:49:10;10.83;;;5.97;;
14191;SDS011;7177;48.572;7.838;2023-06-14T04:51:43;8.53;;;6.00;;
14191;SDS011;7177;48.572;7.838;2023-06-14T04:54:15;10.20;;;6.00;;
14191;SDS011;7177;48.572;7.838;2023-06-14T04:56:41;9.90;;;6.37;;
14191;SDS011;7177;48.572;7.838;2023-06-14T04:59:07;9.37;;;5.87;;
14191;SDS011;7177;48.572;7.838;2023-06-14T05:01:34;13.70;;;6.43;;
14191;SDS011;7177;48.572;7.838;2023-06-14T05:04:02;7.23;;;5.77;;
14191;SDS011;7177;48.572;7.838;2023-06-14T05:06:28;8.30;;;6.20;;
14191;SDS011;7177;48.572;7.838;2023-06-14T05:08:55;9.10;;;5.93;;
14191;SDS011;7177;48.572;7.838;2023-06-14T05:11:20;15.23;;;6.40;;
14191;SDS011;7177;48.572;7.838;2023-06-14T05:13:48;11.60;;;6.23;;
14191;SDS011;7177;48.572;7.838;2023-06-14T05:16:14;10.07;;;5.93;;
14191;SDS011;7177;48.572;7.838;2023-06-14T05:18:41;8.10;;;6.43;;
14191;SDS011;7177;48.572;7.838;2023-06-14T05:21:07;10.43;;;6.60;;
14191;SDS011;7177;48.572;7.838;2023-06-14T05:23:33;7.57;;;5.90;;
14191;SDS011;7177;48.572;7.838;2023-06-14T05:25:59;8.50;;;5.90;;
14191;SDS011;7177;48.572;7.838;2023-06-14T05:28:25;8.47;;;5.77;;
14191;SDS011;7177;48.572;7.838;2023-06-14T05:30:51;10.00;;;5.60;;
14191;SDS011;7177;48.572;7.838;2023-06-14T05:33:16;19.77;;;12.03;;
14191;SDS011;7177;48.572;7.838;2023-06-14T05:35:42;10.63;;;6.57;;
14191;SDS011;7177;48.572;7.838;2023-06-14T05:38:07;9.13;;;6.60;;
14191;SDS011;7177;48.572;7.838;2023-06-14T05:40:33;7.67;;;6.17;;
14191;SDS011;7177;48.572;7.838;2023-06-14T05:42:59;6.10;;;5.40;;
14191;SDS011;7177;48.572;7.838;2023-06-14T05:45:24;8.63;;;5.50;;
14191;SDS011;7177;48.572;7.838;2023-06-14T05:47:50;6.37;;;5.77;;
14191;SDS011;7177;48.572;7.838;2023-06-14T05:50:17;9.23;;;6.30;;
14191;SDS011;7177;48.572;7.838;2023-06-14T05:52:42;10.17;;;6.47;;
14191;SDS011;7177;48.572;7.838;2023-06-14T05:55:08;7.33;;;6.07;;
14191;SDS011;7177;48.572;7.838;2023-06-14T05:57:33;9.23;;;6.67;;
14191;SDS011;7177;48.572;7.838;2023-06-14T05:59:59;12.10;;;6.40;;
14191;SDS011;7177;48.572;7.838;2023-06-14T06:02:24;6.90;;;6.07;;
14191;SDS011;7177;48.572;7.838;2023-06-14T06:04:50;6.60;;;5.67;;
14191;SDS011;7177;48.572;7.838;2023-06-14T06:07:16;11.50;;;6.40;;
14191;SDS011;7177;48.572;7.838;2023-06-14T06:09:41;9.93;;;6.10;;
14191;SDS011;7177;48.572;7.838;2023-06-14T06:12:07;13.23;;;6.10;;
14191;SDS011;7177;48.572;7.838;2023-06-14T06:14:32;10.73;;;5.80;;
14191;SDS011;7177;48.572;7.838;2023-06-14T06:16:58;5.73;;;5.07;;
14191;SDS011;7177;48.572;7.838;2023-06-14T06:19:24;11.40;;;5.77;;
14191;SDS011;7177;48.572;7.838;2023-06-14T06:21:50;20.53;;;5.70;;
14191;SDS011;7177;48.572;7.838;2023-06-14T06:24:15;11.40;;;5.43;;
14191;SDS011;7177;48.572;7.838;2023-06-14T06:26:41;6.93;;;5.20;;
14191;SDS011;7177;48.572;7.838;2023-06-14T06:29:07;7.33;;;5.17;;
14191;SDS011;7177;48.572;7.838;2023-06-14T06:31:32;7.63;;;5.37;;
14191;SDS011;7177;48.572;7.838;2023-06-14T06:33:58;6.93;;;5.60;;
14191;SDS011;7177;48.572;7.838;2023-06-14T06:36:23;8.77;;;5.37;;
14191;SDS011;7177;48.572;7.838;2023-06-14T06:38:50;6.13;;;4.97;;
14191;SDS011;7177;48.572;7.838;2023-06-14T06:41:15;10.07;;;5.70;;
14191;SDS011;7177;48.572;7.838;2023-06-14T06:43:41;9.27;;;5.27;;
14191;SDS011;7177;48.572;7.838;2023-06-14T06:46:06;8.23;;;5.03;;
14191;SDS011;7177;48.572;7.838;2023-06-14T06:48:32;5.93;;;5.10;;
14191;SDS011;7177;48.572;7.838;2023-06-14T06:50:58;6.03;;;5.27;;
14191;SDS011;7177;48.572;7.838;2023-06-14T06:53:23;7.13;;;5.03;;
14191;SDS011;7177;48.572;7.838;2023-06-14T06:55:49;8.37;;;5.23;;
14191;SDS011;7177;48.572;7.838;2023-06-14T06:58:14;10.83;;;5.93;;
14191;SDS011;7177;48.572;7.838;2023-06-14T07:00:40;6.50;;;5.07;;
14191;SDS011;7177;48.572;7.838;2023-06-14T07:03:06;12.07;;;5.67;;
14191;SDS011;7177;48.572;7.838;2023-06-14T07:05:31;14.03;;;6.47;;
14191;SDS011;7177;48.572;7.838;2023-06-14T07:07:57;8.23;;;5.37;;
14191;SDS011;7177;48.572;7.838;2023-06-14T07:10:23;7.67;;;5.67;;
14191;SDS011;7177;48.572;7.838;2023-06-14T07:12:49;12.10;;;5.30;;
14191;SDS011;7177;48.572;7.838;2023-06-14T07:15:15;10.77;;;5.63;;
14191;SDS011;7177;48.572;7.838;2023-06-14T07:17:41;10.83;;;5.00;;
14191;SDS011;7177;48.572;7.838;2023-06-14T07:20:07;8.13;;;4.80;;
14191;SDS011;7177;48.572;7.838;2023-06-14T07:22:36;7.53;;;4.90;;
14191;SDS011;7177;48.572;7.838;2023-06-14T07:25:03;7.20;;;5.07;;
14191;SDS011;7177;48.572;7.838;2023-06-14T07:27:28;14.17;;;5.90;;
14191;SDS011;7177;48.572;7.838;2023-06-14T07:29:54;9.77;;;6.10;;
14191;SDS011;7177;48.572;7.838;2023-06-14T07:32:19;6.33;;;5.10;;
14191;SDS011;7177;48.572;7.838;2023-06-14T07:34:45;7.43;;;4.87;;
14191;SDS011;7177;48.572;7.838;2023-06-14T07:37:10;7.60;;;5.10;;
14191;SDS011;7177;48.572;7.838;2023-06-14T07:39:36;8.37;;;4.93;;
14191;SDS011;7177;48.572;7.838;2023-06-14T07:42:01;10.63;;;5.30;;
14191;SDS011;7177;48.572;7.838;2023-06-14T07:44:29;8.40;;;5.13;;
14191;SDS011;7177;48.572;7.838;2023-06-14T07:46:56;7.60;;;4.97;;
14191;SDS011;7177;48.572;7.838;2023-06-14T07:49:24;6.77;;;4.80;;
14191;SDS011;7177;48.572;7.838;2023-06-14T07:51:50;6.60;;;5.23;;
14191;SDS011;7177;48.572;7.838;2023-06-14T07:54:16;7.10;;;5.43;;
14191;SDS011;7177;48.572;7.838;2023-06-14T07:56:42;7.47;;;5.60;;
14191;SDS011;7177;48.572;7.838;2023-06-14T07:59:07;6.93;;;5.17;;
14191;SDS011;7177;48.572;7.838;2023-06-14T08:01:34;9.57;;;5.30;;
14191;SDS011;7177;48.572;7.838;2023-06-14T08:03:59;7.47;;;5.10;;
14191;SDS011;7177;48.572;7.838;2023-06-14T08:06:25;9.23;;;4.70;;
14191;SDS011;7177;48.572;7.838;2023-06-14T08:08:51;9.37;;;5.00;;
14191;SDS011;7177;48.572;7.838;2023-06-14T08:11:16;8.97;;;7.23;;
14191;SDS011;7177;48.572;7.838;2023-06-14T08:13:42;8.87;;;5.50;;
14191;SDS011;7177;48.572;7.838;2023-06-14T08:16:07;11.63;;;5.43;;
14191;SDS011;7177;48.572;7.838;2023-06-14T08:18:33;5.70;;;4.40;;
14191;SDS011;7177;48.572;7.838;2023-06-14T08:20:58;6.90;;;5.00;;
14191;SDS011;7177;48.572;7.838;2023-06-14T08:23:24;8.87;;;5.43;;
14191;SDS011;7177;48.572;7.838;2023-06-14T08:25:49;9.57;;;4.83;;
14191;SDS011;7177;48.572;7.838;2023-06-14T08:28:15;9.57;;;4.87;;
14191;SDS011;7177;48.572;7.838;2023-06-14T08:30:41;12.57;;;6.63;;
14191;SDS011;7177;48.572;7.838;2023-06-14T08:33:07;9.20;;;4.83;;
14191;SDS011;7177;48.572;7.838;2023-06-14T08:35:33;6.97;;;4.80;;
14191;SDS011;7177;48.572;7.838;2023-06-14T08:38:02;6.77;;;4.50;;
14191;SDS011;7177;48.572;7.838;2023-06-14T08:40:28;10.77;;;4.50;;
14191;SDS011;7177;48.572;7.838;2023-06-14T08:42:55;11.33;;;4.70;;
14191;SDS011;7177;48.572;7.838;2023-06-14T08:45:21;6.93;;;4.30;;
14191;SDS011;7177;48.572;7.838;2023-06-14T08:47:48;15.43;;;5.13;;
14191;SDS011;7177;48.572;7.838;2023-06-14T08:50:26;10.40;;;4.43;;
14191;SDS011;7177;48.572;7.838;2023-06-14T08:52:55;9.03;;;5.20;;
14191;SDS011;7177;48.572;7.838;2023-06-14T08:55:25;8.67;;;4.77;;
14191;SDS011;7177;48.572;7.838;2023-06-14T08:57:55;6.03;;;4.43;;
14191;SDS011;7177;48.572;7.838;2023-06-14T09:00:23;10.17;;;4.60;;
14191;SDS011;7177;48.572;7.838;2023-06-14T09:02:49;9.17;;;4.80;;
14191;SDS011;7177;48.572;7.838;2023-06-14T09:05:20;11.03;;;5.03;;
14191;SDS011;7177;48.572;7.838;2023-06-14T09:07:49;6.00;;;4.90;;
14191;SDS011;7177;48.572;7.838;2023-06-14T09:10:16;9.93;;;4.90;;
14191;SDS011;7177;48.572;7.838;2023-06-14T09:12:42;12.50;;;4.97;;
14191;SDS011;7177;48.572;7.838;2023-06-14T09:18:17;10.53;;;4.93;;
14191;SDS011;7177;48.572;7.838;2023-06-14T09:20:42;5.70;;;4.60;;
14191;SDS011;7177;48.572;7.838;2023-06-14T09:23:08;9.20;;;4.80;;
14191;SDS011;7177;48.572;7.838;2023-06-14T09:25:44;10.10;;;5.13;;
14191;SDS011;7177;48.572;7.838;2023-06-14T09:28:11;11.00;;;5.40;;
14191;SDS011;7177;48.572;7.838;2023-06-14T09:30:39;9.37;;;4.80;;
14191;SDS011;7177;48.572;7.838;2023-06-14T09:33:05;7.73;;;4.90;;
14191;SDS011;7177;48.572;7.838;2023-06-14T09:35:31;6.80;;;5.03;;
14191;SDS011;7177;48.572;7.838;2023-06-14T09:37:57;6.87;;;4.80;;
14191;SDS011;7177;48.572;7.838;2023-06-14T09:40:22;10.50;;;4.70;;
14191;SDS011;7177;48.572;7.838;2023-06-14T09:42:48;5.63;;;4.30;;
14191;SDS011;7177;48.572;7.838;2023-06-14T09:45:14;7.60;;;4.50;;
14191;SDS011;7177;48.572;7.838;2023-06-14T09:47:44;7.60;;;4.73;;
14191;SDS011;7177;48.572;7.838;2023-06-14T09:50:10;6.63;;;4.33;;
14191;SDS011;7177;48.572;7.838;2023-06-14T09:52:36;9.07;;;4.60;;
14191;SDS011;7177;48.572;7.838;2023-06-14T09:55:02;6.30;;;4.37;;
14191;SDS011;7177;48.572;7.838;2023-06-14T09:57:36;8.10;;;4.40;;
14191;SDS011;7177;48.572;7.838;2023-06-14T10:00:05;7.63;;;4.20;;
14191;SDS011;7177;48.572;7.838;2023-06-14T10:02:36;13.40;;;3.93;;
14191;SDS011;7177;48.572;7.838;2023-06-14T10:07:40;7.73;;;4.00;;
14191;SDS011;7177;48.572;7.838;2023-06-14T10:10:11;5.67;;;4.00;;
14191;SDS011;7177;48.572;7.838;2023-06-14T10:12:37;10.50;;;4.10;;
14191;SDS011;7177;48.572;7.838;2023-06-14T10:15:03;9.60;;;4.30;;
14191;SDS011;7177;48.572;7.838;2023-06-14T10:17:33;4.30;;;3.90;;
14191;SDS011;7177;48.572;7.838;2023-06-14T10:22:49;8.57;;;4.00;;
14191;SDS011;7177;48.572;7.838;2023-06-14T10:25:27;4.70;;;3.60;;
14191;SDS011;7177;48.572;7.838;2023-06-14T10:28:02;6.47;;;4.60;;
14191;SDS011;7177;48.572;7.838;2023-06-14T10:30:41;11.50;;;4.03;;
14191;SDS011;7177;48.572;7.838;2023-06-14T10:33:35;6.67;;;3.43;;
14191;SDS011;7177;48.572;7.838;2023-06-14T10:36:10;8.60;;;3.70;;
14191;SDS011;7177;48.572;7.838;2023-06-14T10:39:05;8.77;;;3.70;;
14191;SDS011;7177;48.572;7.838;2023-06-14T10:41:34;5.10;;;3.50;;
14191;SDS011;7177;48.572;7.838;2023-06-14T10:46:48;7.33;;;3.53;;
14191;SDS011;7177;48.572;7.838;2023-06-14T10:49:17;6.77;;;3.70;;
14191;SDS011;7177;48.572;7.838;2023-06-14T10:51:50;8.07;;;4.03;;
14191;SDS011;7177;48.572;7.838;2023-06-14T10:54:16;5.63;;;3.80;;
14191;SDS011;7177;48.572;7.838;2023-06-14T10:56:49;6.37;;;3.47;;
14191;SDS011;7177;48.572;7.838;2023-06-14T10:59:20;13.30;;;4.57;;
14191;SDS011;7177;48.572;7.838;2023-06-14T11:04:50;5.57;;;3.80;;
14191;SDS011;7177;48.572;7.838;2023-06-14T11:07:38;8.73;;;3.60;;
14191;SDS011;7177;48.572;7.838;2023-06-14T11:10:41;17.03;;;4.93;;
14191;SDS011;7177;48.572;7.838;2023-06-14T11:13:10;4.37;;;3.53;;
14191;SDS011;7177;48.572;7.838;2023-06-14T11:15:37;4.07;;;3.57;;
14191;SDS011;7177;48.572;7.838;2023-06-14T11:18:10;5.33;;;3.77;;
14191;SDS011;7177;48.572;7.838;2023-06-14T11:20:39;9.93;;;3.90;;
14191;SDS011;7177;48.572;7.838;2023-06-14T11:23:05;6.33;;;3.50;;
14191;SDS011;7177;48.572;7.838;2023-06-14T11:25:30;4.53;;;3.80;;
14191;SDS011;7177;48.572;7.838;2023-06-14T11:27:56;5.50;;;3.53;;
14191;SDS011;7177;48.572;7.838;2023-06-14T11:30:22;5.13;;;3.90;;
14191;SDS011;7177;48.572;7.838;2023-06-14T11:32:49;7.10;;;4.20;;
14191;SDS011;7177;48.572;7.838;2023-06-14T11:35:15;6.83;;;3.47;;
14191;SDS011;7177;48.572;7.838;2023-06-14T11:37:42;8.00;;;3.63;;
14191;SDS011;7177;48.572;7.838;2023-06-14T11:40:09;4.40;;;3.73;;
14191;SDS011;7177;48.572;7.838;2023-06-14T11:42:37;5.83;;;3.53;;
14191;SDS011;7177;48.572;7.838;2023-06-14T11:45:04;6.73;;;3.23;;
14191;SDS011;7177;48.572;7.838;2023-06-14T11:47:32;7.10;;;3.63;;
14191;SDS011;7177;48.572;7.838;2023-06-14T11:49:59;8.77;;;3.33;;
14191;SDS011;7177;48.572;7.838;2023-06-14T11:52:25;7.07;;;3.60;;
14191;SDS011;7177;48.572;7.838;2023-06-14T11:54:51;4.17;;;3.53;;
14191;SDS011;7177;48.572;7.838;2023-06-14T11:57:18;6.77;;;3.60;;
14191;SDS011;7177;48.572;7.838;2023-06-14T11:59:44;7.27;;;3.63;;
14191;SDS011;7177;48.572;7.838;2023-06-14T12:02:16;7.57;;;3.87;;
14191;SDS011;7177;48.572;7.838;2023-06-14T12:04:43;6.60;;;3.70;;
14191;SDS011;7177;48.572;7.838;2023-06-14T12:07:12;6.43;;;3.60;;
14191;SDS011;7177;48.572;7.838;2023-06-14T12:09:42;8.67;;;4.20;;
14191;SDS011;7177;48.572;7.838;2023-06-14T12:12:34;7.33;;;3.60;;
14191;SDS011;7177;48.572;7.838;2023-06-14T12:15:02;6.53;;;3.80;;
14191;SDS011;7177;48.572;7.838;2023-06-14T12:17:31;6.33;;;3.40;;
14191;SDS011;7177;48.572;7.838;2023-06-14T12:19:57;3.67;;;3.37;;
14191;SDS011;7177;48.572;7.838;2023-06-14T12:22:23;9.63;;;3.77;;
14191;SDS011;7177;48.572;7.838;2023-06-14T12:24:48;6.37;;;3.30;;
14191;SDS011;7177;48.572;7.838;2023-06-14T12:27:14;3.80;;;3.40;;
14191;SDS011;7177;48.572;7.838;2023-06-14T12:29:43;5.43;;;3.40;;
14191;SDS011;7177;48.572;7.838;2023-06-14T12:32:10;7.47;;;3.10;;
14191;SDS011;7177;48.572;7.838;2023-06-14T12:34:35;4.00;;;3.50;;
14191;SDS011;7177;48.572;7.838;2023-06-14T12:37:01;6.90;;;3.97;;
14191;SDS011;7177;48.572;7.838;2023-06-14T12:39:29;5.87;;;3.70;;
14191;SDS011;7177;48.572;7.838;2023-06-14T12:41:56;7.10;;;3.40;;
14191;SDS011;7177;48.572;7.838;2023-06-14T12:44:22;4.47;;;3.50;;
14191;SDS011;7177;48.572;7.838;2023-06-14T12:46:47;4.17;;;3.43;;
14191;SDS011;7177;48.572;7.838;2023-06-14T12:49:13;7.50;;;3.27;;
14191;SDS011;7177;48.572;7.838;2023-06-14T12:51:39;3.73;;;3.37;;
14191;SDS011;7177;48.572;7.838;2023-06-14T12:54:05;6.13;;;3.97;;
14191;SDS011;7177;48.572;7.838;2023-06-14T12:56:31;5.23;;;3.50;;
14191;SDS011;7177;48.572;7.838;2023-06-14T12:58:57;7.90;;;4.03;;
14191;SDS011;7177;48.572;7.838;2023-06-14T13:01:41;4.73;;;3.50;;
14191;SDS011;7177;48.572;7.838;2023-06-14T13:04:15;8.07;;;3.30;;
14191;SDS011;7177;48.572;7.838;2023-06-14T13:06:41;5.40;;;3.77;;
14191;SDS011;7177;48.572;7.838;2023-06-14T13:09:06;4.10;;;3.17;;
14191;SDS011;7177;48.572;7.838;2023-06-14T13:11:33;4.80;;;3.50;;
14191;SDS011;7177;48.572;7.838;2023-06-14T13:13:58;8.13;;;3.60;;
14191;SDS011;7177;48.572;7.838;2023-06-14T13:16:24;6.80;;;3.60;;
14191;SDS011;7177;48.572;7.838;2023-06-14T13:18:49;9.47;;;3.90;;
14191;SDS011;7177;48.572;7.838;2023-06-14T13:21:15;5.17;;;3.60;;
14191;SDS011;7177;48.572;7.838;2023-06-14T13:23:40;5.27;;;3.33;;
14191;SDS011;7177;48.572;7.838;2023-06-14T13:26:06;8.37;;;3.80;;
14191;SDS011;7177;48.572;7.838;2023-06-14T13:28:32;4.90;;;3.60;;
14191;SDS011;7177;48.572;7.838;2023-06-14T13:31:00;6.93;;;3.43;;
14191;SDS011;7177;48.572;7.838;2023-06-14T13:33:59;5.90;;;4.00;;
14191;SDS011;7177;48.572;7.838;2023-06-14T13:36:27;6.37;;;3.47;;
14191;SDS011;7177;48.572;7.838;2023-06-14T13:38:53;6.20;;;3.43;;
14191;SDS011;7177;48.572;7.838;2023-06-14T13:41:19;11.70;;;4.33;;
14191;SDS011;7177;48.572;7.838;2023-06-14T13:43:45;7.33;;;4.23;;
14191;SDS011;7177;48.572;7.838;2023-06-14T13:46:11;6.97;;;3.70;;
14191;SDS011;7177;48.572;7.838;2023-06-14T13:48:36;5.90;;;4.10;;
14191;SDS011;7177;48.572;7.838;2023-06-14T13:51:02;6.47;;;3.90;;
14191;SDS011;7177;48.572;7.838;2023-06-14T13:53:29;6.27;;;3.87;;
14191;SDS011;7177;48.572;7.838;2023-06-14T13:55:54;6.90;;;4.23;;
14191;SDS011;7177;48.572;7.838;2023-06-14T13:58:20;4.53;;;3.60;;
14191;SDS011;7177;48.572;7.838;2023-06-14T14:00:46;5.73;;;3.83;;
14191;SDS011;7177;48.572;7.838;2023-06-14T14:03:11;10.07;;;4.00;;
14191;SDS011;7177;48.572;7.838;2023-06-14T14:05:37;4.43;;;3.73;;
14191;SDS011;7177;48.572;7.838;2023-06-14T14:08:02;6.27;;;4.37;;
14191;SDS011;7177;48.572;7.838;2023-06-14T14:10:28;7.73;;;4.17;;
14191;SDS011;7177;48.572;7.838;2023-06-14T14:12:54;8.67;;;3.83;;
14191;SDS011;7177;48.572;7.838;2023-06-14T14:15:20;6.87;;;4.37;;
14191;SDS011;7177;48.572;7.838;2023-06-14T14:17:45;5.80;;;3.93;;
14191;SDS011;7177;48.572;7.838;2023-06-14T14:20:12;6.43;;;3.90;;
14191;SDS011;7177;48.572;7.838;2023-06-14T14:22:40;10.57;;;3.37;;
14191;SDS011;7177;48.572;7.838;2023-06-14T14:25:09;5.80;;;3.53;;
14191;SDS011;7177;48.572;7.838;2023-06-14T14:27:35;6.23;;;3.50;;
14191;SDS011;7177;48.572;7.838;2023-06-14T14:30:01;9.03;;;3.70;;
14191;SDS011;7177;48.572;7.838;2023-06-14T14:32:28;7.10;;;4.07;;
14191;SDS011;7177;48.572;7.838;2023-06-14T14:34:53;7.87;;;3.40;;
14191;SDS011;7177;48.572;7.838;2023-06-14T14:37:19;6.57;;;3.90;;
14191;SDS011;7177;48.572;7.838;2023-06-14T14:39:45;4.20;;;3.47;;
14191;SDS011;7177;48.572;7.838;2023-06-14T14:42:11;6.43;;;3.30;;
14191;SDS011;7177;48.572;7.838;2023-06-14T14:44:37;7.33;;;3.63;;
14191;SDS011;7177;48.572;7.838;2023-06-14T14:47:03;5.57;;;3.30;;
14191;SDS011;7177;48.572;7.838;2023-06-14T14:49:30;8.43;;;3.80;;
14191;SDS011;7177;48.572;7.838;2023-06-14T14:51:56;5.10;;;3.63;;
14191;SDS011;7177;48.572;7.838;2023-06-14T14:54:21;7.17;;;3.50;;
14191;SDS011;7177;48.572;7.838;2023-06-14T14:56:48;7.00;;;3.30;;
14191;SDS011;7177;48.572;7.838;2023-06-14T14:59:13;8.17;;;4.00;;
14191;SDS011;7177;48.572;7.838;2023-06-14T15:01:39;8.67;;;3.60;;
14191;SDS011;7177;48.572;7.838;2023-06-14T15:04:05;4.17;;;3.47;;
14191;SDS011;7177;48.572;7.838;2023-06-14T15:06:30;5.00;;;3.33;;
14191;SDS011;7177;48.572;7.838;2023-06-14T15:08:56;3.83;;;3.47;;
14191;SDS011;7177;48.572;7.838;2023-06-14T15:11:22;9.73;;;3.23;;
14191;SDS011;7177;48.572;7.838;2023-06-14T15:13:47;6.47;;;3.50;;